createdAt,value
2019-03-24T00:00:50.687Z,9.20
2019-03-24T00:03:23.056Z,8.80
2019-03-24T00:05:54.025Z,8.87
2019-03-24T00:08:24.740Z,8.88
2019-03-24T00:10:55.477Z,8.85
2019-03-24T00:13:26.174Z,8.72
2019-03-24T00:15:57.221Z,8.81
2019-03-24T00:18:27.919Z,9.13
2019-03-24T00:20:58.896Z,8.91
2019-03-24T00:23:30.207Z,8.68
2019-03-24T00:26:00.919Z,8.68
2019-03-24T00:28:31.578Z,8.61
2019-03-24T00:31:02.565Z,8.84
2019-03-24T00:33:33.522Z,8.64
2019-03-24T00:36:04.335Z,8.91
2019-03-24T00:38:35.012Z,9.07
2019-03-24T00:41:06.004Z,8.70
2019-03-24T00:43:36.717Z,8.58
2019-03-24T00:46:07.461Z,8.65
2019-03-24T00:48:38.948Z,8.47
2019-03-24T00:51:09.691Z,8.29
2019-03-24T00:53:40.374Z,8.06
2019-03-24T00:56:11.034Z,8.29
2019-03-24T00:58:41.739Z,8.12
2019-03-24T01:01:12.710Z,8.24
2019-03-24T01:03:43.405Z,8.26
2019-03-24T01:06:14.137Z,8.19
2019-03-24T01:08:45.137Z,8.35
2019-03-24T01:11:17.108Z,8.46
2019-03-24T01:13:47.826Z,8.24
2019-03-24T01:16:18.565Z,8.24
2019-03-24T01:18:49.221Z,8.49
2019-03-24T01:21:20.243Z,8.36
2019-03-24T01:23:50.917Z,8.03
2019-03-24T01:26:21.606Z,8.27
2019-03-24T01:28:52.316Z,8.66
2019-03-24T01:31:23.300Z,8.42
2019-03-24T01:33:53.971Z,8.63
2019-03-24T01:36:24.931Z,8.85
2019-03-24T01:38:55.766Z,8.24
2019-03-24T01:41:26.450Z,8.43
2019-03-24T01:43:57.160Z,8.33
2019-03-24T01:46:28.729Z,8.18
2019-03-24T01:48:59.403Z,8.51
2019-03-24T01:51:30.151Z,8.44
2019-03-24T01:54:00.820Z,8.42
2019-03-24T01:56:31.539Z,8.24
2019-03-24T01:59:02.241Z,8.04
2019-03-24T02:01:33.062Z,7.87
2019-03-24T02:04:04.016Z,8.20
2019-03-24T02:06:34.701Z,8.18
2019-03-24T02:09:07.228Z,8.46
2019-03-24T02:11:37.961Z,8.07
2019-03-24T02:14:08.926Z,7.99
2019-03-24T02:16:39.664Z,8.43
2019-03-24T02:19:10.545Z,8.30
2019-03-24T02:21:41.302Z,8.57
2019-03-24T02:24:11.977Z,8.07
2019-03-24T02:26:42.715Z,8.31
2019-03-24T02:29:13.423Z,8.46
2019-03-24T02:31:44.689Z,8.93
2019-03-24T02:34:15.689Z,9.10
2019-03-24T02:36:46.583Z,8.63
2019-03-24T02:39:17.520Z,7.99
2019-03-24T02:41:48.233Z,8.50
2019-03-24T02:44:18.958Z,8.25
2019-03-24T02:46:49.946Z,8.71
2019-03-24T02:49:20.713Z,8.55
2019-03-24T02:51:51.664Z,8.70
2019-03-24T02:54:22.361Z,8.39
2019-03-24T02:56:53.070Z,8.10
2019-03-24T02:59:23.761Z,8.27
2019-03-24T03:01:55.744Z,8.34
2019-03-24T03:04:26.763Z,8.48
2019-03-24T03:06:57.460Z,8.27
2019-03-24T03:09:28.245Z,8.46
2019-03-24T03:11:59.016Z,8.09
2019-03-24T03:14:29.845Z,8.23
2019-03-24T03:17:02.231Z,8.24
2019-03-24T03:19:32.966Z,8.32
2019-03-24T03:22:03.633Z,8.33
2019-03-24T03:24:34.301Z,8.41
2019-03-24T03:27:05.041Z,8.75
2019-03-24T03:29:35.712Z,8.79
2019-03-24T03:32:06.444Z,8.79
2019-03-24T03:34:37.123Z,8.55
2019-03-24T03:37:08.077Z,8.35
2019-03-24T03:39:38.748Z,8.48
2019-03-24T03:42:09.630Z,8.88
2019-03-24T03:44:40.310Z,8.95
2019-03-24T03:47:11.037Z,8.26
2019-03-24T03:49:41.711Z,8.53
2019-03-24T03:52:12.453Z,8.54
2019-03-24T03:54:43.391Z,8.34
2019-03-24T03:57:14.118Z,8.55
2019-03-24T03:59:44.843Z,8.85
2019-03-24T04:02:15.576Z,8.36
2019-03-24T04:04:46.251Z,8.53
2019-03-24T04:07:16.960Z,8.85
2019-03-24T04:09:47.672Z,8.93
2019-03-24T04:12:18.649Z,8.96
2019-03-24T04:14:49.368Z,8.49
2019-03-24T04:17:21.317Z,8.71
2019-03-24T04:19:51.976Z,8.39
2019-03-24T04:22:22.965Z,8.76
2019-03-24T04:24:53.752Z,8.57
2019-03-24T04:27:24.564Z,8.68
2019-03-24T04:29:56.416Z,8.44
2019-03-24T04:32:27.529Z,8.62
2019-03-24T04:34:58.316Z,8.81
2019-03-24T04:37:33.203Z,8.82
2019-03-24T04:40:05.083Z,8.65
2019-03-24T04:42:36.931Z,8.64
2019-03-24T04:45:08.018Z,8.74
2019-03-24T04:47:38.811Z,8.37
2019-03-24T04:50:09.853Z,8.22
2019-03-24T04:52:40.628Z,8.58
2019-03-24T04:55:11.610Z,8.75
2019-03-24T04:57:42.400Z,8.84
2019-03-24T05:00:14.464Z,8.96
2019-03-24T05:02:45.270Z,8.50
2019-03-24T05:05:16.148Z,8.41
2019-03-24T05:07:47.496Z,8.67
2019-03-24T05:10:28.035Z,9.20
2019-03-24T05:12:58.887Z,8.60
2019-03-24T05:15:30.019Z,8.45
2019-03-24T05:18:00.845Z,8.92
2019-03-24T05:20:31.979Z,8.57
2019-03-24T05:23:03.007Z,8.85
2019-03-24T05:25:33.958Z,8.73
2019-03-24T05:28:05.857Z,8.86
2019-03-24T05:30:36.713Z,8.79
2019-03-24T05:33:07.522Z,9.07
2019-03-24T05:35:38.331Z,8.30
2019-03-24T05:38:09.193Z,8.62
2019-03-24T05:40:39.965Z,8.82
2019-03-24T05:43:11.430Z,8.51
2019-03-24T05:45:42.174Z,8.49
2019-03-24T05:48:13.018Z,8.46
2019-03-24T05:50:43.823Z,8.18
2019-03-24T05:53:14.652Z,8.48
2019-03-24T05:55:45.516Z,8.49
2019-03-24T05:58:16.267Z,8.90
2019-03-24T06:00:47.159Z,8.94
2019-03-24T06:03:18.399Z,9.02
2019-03-24T06:05:49.178Z,8.57
2019-03-24T06:08:19.941Z,9.10
2019-03-24T06:10:50.693Z,8.88
2019-03-24T06:13:22.447Z,9.11
2019-03-24T06:15:53.502Z,8.85
2019-03-24T06:18:24.252Z,8.71
2019-03-24T06:20:55.327Z,8.72
2019-03-24T06:23:26.376Z,9.09
2019-03-24T06:25:57.167Z,8.74
2019-03-24T06:28:27.972Z,8.67
2019-03-24T06:30:58.732Z,9.16
2019-03-24T06:33:29.568Z,9.30
2019-03-24T06:36:00.288Z,9.05
2019-03-24T06:38:31.023Z,9.59
2019-03-24T06:41:01.918Z,9.68
2019-03-24T06:43:32.698Z,10.10
2019-03-24T06:46:03.755Z,10.05
2019-03-24T06:48:35.376Z,9.56
2019-03-24T06:51:06.146Z,9.68
2019-03-24T06:53:38.687Z,9.21
2019-03-24T06:56:09.533Z,9.42
2019-03-24T06:58:40.345Z,9.28
2019-03-24T07:01:11.516Z,9.75
2019-03-24T07:03:42.680Z,9.23
2019-03-24T07:06:13.432Z,9.84
2019-03-24T07:08:44.243Z,9.06
2019-03-24T07:11:15.305Z,9.20
2019-03-24T07:13:46.165Z,9.91
2019-03-24T07:16:18.556Z,9.29
2019-03-24T07:18:49.435Z,9.28
2019-03-24T07:21:20.228Z,9.63
2019-03-24T07:23:51.001Z,10.14
2019-03-24T07:26:22.048Z,9.65
2019-03-24T07:28:52.826Z,9.44
2019-03-24T07:31:23.671Z,9.55
2019-03-24T07:33:54.586Z,9.47
2019-03-24T07:36:25.383Z,9.33
2019-03-24T07:38:56.396Z,9.46
2019-03-24T07:41:27.626Z,9.44
2019-03-24T07:43:58.464Z,9.41
2019-03-24T07:46:29.162Z,9.52
2019-03-24T07:48:59.938Z,9.14
2019-03-24T07:51:30.931Z,9.71
2019-03-24T07:54:01.932Z,9.85
2019-03-24T07:56:32.729Z,10.17
2019-03-24T07:59:03.407Z,9.72
2019-03-24T08:01:34.119Z,9.60
2019-03-24T08:04:06.034Z,9.45
2019-03-24T08:06:36.990Z,10.06
2019-03-24T08:09:08.163Z,9.95
2019-03-24T08:11:38.972Z,9.97
2019-03-24T08:14:10.524Z,9.96
2019-03-24T08:16:41.225Z,9.60
2019-03-24T08:19:11.992Z,9.62
2019-03-24T08:21:42.689Z,9.47
2019-03-24T08:24:13.397Z,9.48
2019-03-24T08:26:44.204Z,9.97
2019-03-24T08:29:14.994Z,9.99
2019-03-24T08:31:45.674Z,9.94
2019-03-24T08:34:16.683Z,10.25
2019-03-24T08:36:47.813Z,9.69
2019-03-24T08:39:18.538Z,9.46
2019-03-24T08:41:49.260Z,9.60
2019-03-24T08:44:20.121Z,9.42
2019-03-24T08:46:52.022Z,10.19
2019-03-24T08:49:22.981Z,9.82
2019-03-24T08:51:54.035Z,9.41
2019-03-24T08:54:24.746Z,9.41
2019-03-24T08:56:55.447Z,9.95
2019-03-24T08:59:26.577Z,10.33
2019-03-24T09:01:57.403Z,10.12
2019-03-24T09:04:28.165Z,10.07
2019-03-24T09:06:59.149Z,10.05
2019-03-24T09:09:29.883Z,10.06
2019-03-24T09:12:00.900Z,10.26
2019-03-24T09:14:31.597Z,10.33
2019-03-24T09:17:02.360Z,10.04
2019-03-24T09:19:33.126Z,10.13
2019-03-24T09:22:03.785Z,10.68
2019-03-24T09:24:34.824Z,10.49
2019-03-24T09:27:05.548Z,10.57
2019-03-24T09:29:36.278Z,10.95
2019-03-24T09:32:08.053Z,11.29
2019-03-24T09:34:40.552Z,11.22
2019-03-24T09:37:11.380Z,11.85
2019-03-24T09:39:43.748Z,11.77
2019-03-24T09:42:15.822Z,11.45
2019-03-24T09:44:47.236Z,11.35
2019-03-24T09:47:18.229Z,11.54
2019-03-24T09:49:48.994Z,11.17
2019-03-24T09:52:19.675Z,11.48
2019-03-24T09:54:50.444Z,11.87
2019-03-24T09:57:21.127Z,11.44
2019-03-24T09:59:51.837Z,10.67
2019-03-24T10:02:22.812Z,10.57
2019-03-24T10:04:54.961Z,10.83
2019-03-24T10:07:27.764Z,10.96
2019-03-24T10:09:58.583Z,10.81
2019-03-24T10:12:29.379Z,10.75
2019-03-24T10:15:01.632Z,11.01
2019-03-24T10:17:32.665Z,10.80
2019-03-24T10:20:03.627Z,10.97
2019-03-24T10:22:34.270Z,11.01
2019-03-24T10:25:05.111Z,10.59
2019-03-24T10:27:35.763Z,10.66
2019-03-24T10:30:08.485Z,10.29
2019-03-24T10:32:39.122Z,10.41
2019-03-24T10:35:09.881Z,10.77
2019-03-24T10:37:40.641Z,10.39
2019-03-24T10:40:11.632Z,10.49
2019-03-24T10:42:42.267Z,10.59
2019-03-24T10:45:13.920Z,10.80
2019-03-24T10:47:44.563Z,10.31
2019-03-24T10:50:15.317Z,10.47
2019-03-24T10:52:46.047Z,10.67
2019-03-24T10:55:16.895Z,10.86
2019-03-24T10:57:47.521Z,10.48
2019-03-24T11:00:32.877Z,10.82
2019-03-24T11:03:03.496Z,11.34
2019-03-24T11:05:34.196Z,11.25
2019-03-24T11:08:05.145Z,10.33
2019-03-24T11:10:35.826Z,10.87
2019-03-24T11:13:06.730Z,10.61
2019-03-24T11:15:37.410Z,10.34
2019-03-24T11:18:08.123Z,10.44
2019-03-24T11:20:38.865Z,10.33
2019-03-24T11:23:09.491Z,10.44
2019-03-24T11:25:40.154Z,10.50
2019-03-24T11:28:11.145Z,10.27
2019-03-24T11:30:41.805Z,9.65
2019-03-24T11:33:12.475Z,9.79
2019-03-24T11:35:43.372Z,10.71
2019-03-24T11:38:14.389Z,11.13
2019-03-24T11:40:45.029Z,11.40
2019-03-24T11:43:16.938Z,11.49
2019-03-24T11:45:47.591Z,10.81
2019-03-24T11:48:18.257Z,11.36
2019-03-24T11:50:48.932Z,10.55
2019-03-24T11:53:20.143Z,10.88
2019-03-24T11:55:50.863Z,11.15
2019-03-24T11:58:21.511Z,11.07
2019-03-24T12:00:52.219Z,10.66
2019-03-24T12:03:25.235Z,11.28
2019-03-24T12:05:55.522Z,10.94
2019-03-24T12:08:26.163Z,11.21
2019-03-24T12:10:56.840Z,11.82
2019-03-24T12:13:27.547Z,11.12
2019-03-24T12:15:58.489Z,10.55
2019-03-24T12:18:29.145Z,11.18
2019-03-24T12:20:59.840Z,11.10
2019-03-24T12:23:31.058Z,11.01
2019-03-24T12:26:01.731Z,10.40
2019-03-24T12:28:32.386Z,10.92
2019-03-24T12:31:03.359Z,11.09
2019-03-24T12:33:34.052Z,11.27
2019-03-24T12:36:04.966Z,11.25
2019-03-24T12:38:35.896Z,11.27
2019-03-24T12:41:06.841Z,10.85
2019-03-24T12:43:37.610Z,10.55
2019-03-24T12:46:08.307Z,10.39
2019-03-24T12:48:38.969Z,10.54
2019-03-24T12:51:09.966Z,10.63
2019-03-24T12:53:40.625Z,11.09
2019-03-24T12:56:12.107Z,10.63
2019-03-24T12:58:43.398Z,10.87
2019-03-24T13:01:14.098Z,10.36
2019-03-24T13:03:44.816Z,10.00
2019-03-24T13:06:16.019Z,10.26
2019-03-24T13:08:46.638Z,10.36
2019-03-24T13:11:17.323Z,10.34
2019-03-24T13:13:48.312Z,10.43
2019-03-24T13:16:19.254Z,10.52
2019-03-24T13:18:50.134Z,10.95
2019-03-24T13:21:20.834Z,11.03
2019-03-24T13:23:51.468Z,11.07
2019-03-24T13:26:22.168Z,10.98
2019-03-24T13:28:52.816Z,11.26
2019-03-24T13:31:23.486Z,10.98
2019-03-24T13:33:54.145Z,10.42
2019-03-24T13:36:25.834Z,10.67
2019-03-24T13:38:56.753Z,11.08
2019-03-24T13:41:27.409Z,11.18
2019-03-24T13:43:58.062Z,10.77
2019-03-24T13:46:29.015Z,10.76
2019-03-24T13:48:59.913Z,10.58
2019-03-24T13:51:30.590Z,10.35
2019-03-24T13:54:01.491Z,10.20
2019-03-24T13:56:33.368Z,10.22
2019-03-24T13:59:04.004Z,10.30
2019-03-24T14:01:35.029Z,10.84
2019-03-24T14:04:06.005Z,10.96
2019-03-24T14:06:36.974Z,10.36
2019-03-24T14:09:09.229Z,10.06
2019-03-24T14:11:39.960Z,10.82
2019-03-24T14:14:10.618Z,10.88
2019-03-24T14:16:42.186Z,10.51
2019-03-24T14:19:13.159Z,10.61
2019-03-24T14:21:43.829Z,10.39
2019-03-24T14:24:15.755Z,10.20
2019-03-24T14:26:46.430Z,9.94
2019-03-24T14:29:17.066Z,10.45
2019-03-24T14:31:47.818Z,10.50
2019-03-24T14:34:18.486Z,9.75
2019-03-24T14:36:49.424Z,9.74
2019-03-24T14:39:20.577Z,9.91
2019-03-24T14:41:51.293Z,10.24
2019-03-24T14:44:22.865Z,10.31
2019-03-24T14:46:53.540Z,10.33
2019-03-24T14:49:24.446Z,10.18
2019-03-24T14:51:55.399Z,10.23
2019-03-24T14:54:26.275Z,9.88
2019-03-24T14:56:56.970Z,9.86
2019-03-24T14:59:27.893Z,9.64
2019-03-24T15:01:58.600Z,9.78
2019-03-24T15:04:29.546Z,10.01
2019-03-24T15:07:00.523Z,10.09
2019-03-24T15:09:31.992Z,10.21
2019-03-24T15:12:02.663Z,9.92
2019-03-24T15:14:33.582Z,10.10
2019-03-24T15:17:04.263Z,9.39
2019-03-24T15:19:34.925Z,9.71
2019-03-24T15:22:06.200Z,9.85
2019-03-24T15:24:37.017Z,10.07
2019-03-24T15:27:07.756Z,10.48
2019-03-24T15:29:39.017Z,10.24
2019-03-24T15:32:10.025Z,9.98
2019-03-24T15:34:40.675Z,9.85
2019-03-24T15:37:11.336Z,9.87
2019-03-24T15:39:42.018Z,9.82
2019-03-24T15:42:14.017Z,9.44
2019-03-24T15:44:44.737Z,9.70
2019-03-24T15:47:15.399Z,9.78
2019-03-24T15:49:46.062Z,10.29
2019-03-24T15:52:17.049Z,10.05
2019-03-24T15:54:47.701Z,9.90
2019-03-24T15:57:18.813Z,10.20
2019-03-24T15:59:50.496Z,9.83
2019-03-24T16:02:21.339Z,9.70
2019-03-24T16:04:51.973Z,10.07
2019-03-24T16:07:22.929Z,10.13
2019-03-24T16:09:53.592Z,9.99
2019-03-24T16:12:24.558Z,10.11
2019-03-24T16:14:55.747Z,10.23
2019-03-24T16:17:26.682Z,9.82
2019-03-24T16:19:58.071Z,9.75
2019-03-24T16:22:29.117Z,9.31
2019-03-24T16:24:59.807Z,9.89
2019-03-24T16:27:30.477Z,9.90
2019-03-24T16:30:01.207Z,9.87
2019-03-24T16:32:32.110Z,9.59
2019-03-24T16:35:03.107Z,9.64
2019-03-24T16:37:34.771Z,9.42
2019-03-24T16:40:05.517Z,8.93
2019-03-24T16:42:36.780Z,9.27
2019-03-24T16:45:07.924Z,9.22
2019-03-24T16:47:38.582Z,9.19
2019-03-24T16:50:10.103Z,9.29
2019-03-24T16:52:41.067Z,9.31
2019-03-24T16:55:12.405Z,9.73
2019-03-24T16:57:43.053Z,10.07
2019-03-24T17:00:13.974Z,10.19
2019-03-24T17:02:44.963Z,9.97
2019-03-24T17:05:15.628Z,9.27
2019-03-24T17:07:46.317Z,8.86
2019-03-24T17:10:17.922Z,9.07
2019-03-24T17:12:49.202Z,9.00
2019-03-24T17:15:19.841Z,8.61
2019-03-24T17:17:50.797Z,8.79
2019-03-24T17:20:21.444Z,8.47
2019-03-24T17:22:52.116Z,8.58
2019-03-24T17:25:22.765Z,8.54
2019-03-24T17:27:53.449Z,8.44
2019-03-24T17:30:24.488Z,8.49
2019-03-24T17:32:55.154Z,8.47
2019-03-24T17:35:25.769Z,8.68
2019-03-24T17:37:56.448Z,8.89
2019-03-24T17:40:27.106Z,8.86
2019-03-24T17:43:03.677Z,9.02
2019-03-24T17:45:34.557Z,8.93
2019-03-24T17:48:05.268Z,8.59
2019-03-24T17:50:35.924Z,8.75
2019-03-24T17:53:07.084Z,9.38
2019-03-24T17:55:38.686Z,9.55
2019-03-24T17:58:09.432Z,8.55
2019-03-24T18:00:42.803Z,8.60
2019-03-24T18:03:13.832Z,8.34
2019-03-24T18:05:44.504Z,8.49
2019-03-24T18:08:15.239Z,8.95
2019-03-24T18:10:45.868Z,8.76
2019-03-24T18:13:16.564Z,9.14
2019-03-24T18:15:47.285Z,9.28
2019-03-24T18:18:17.975Z,9.40
2019-03-24T18:20:48.697Z,9.47
2019-03-24T18:23:19.359Z,9.47
2019-03-24T18:25:50.001Z,9.54
2019-03-24T18:28:20.691Z,9.37
2019-03-24T18:30:51.422Z,8.40
2019-03-24T18:33:22.117Z,8.88
2019-03-24T18:35:53.753Z,9.27
2019-03-24T18:38:24.733Z,9.27
2019-03-24T18:40:55.651Z,8.92
2019-03-24T18:43:26.312Z,8.88
2019-03-24T18:45:57.026Z,8.46
2019-03-24T18:48:27.790Z,8.90
2019-03-24T18:50:58.411Z,8.36
2019-03-24T18:53:29.358Z,8.34
2019-03-24T18:56:01.066Z,8.90
2019-03-24T18:58:32.961Z,8.53
2019-03-24T19:01:03.620Z,8.58
2019-03-24T19:03:34.350Z,8.37
2019-03-24T19:06:05.016Z,8.71
2019-03-24T19:08:36.543Z,8.77
2019-03-24T19:11:07.189Z,8.97
2019-03-24T19:13:37.883Z,8.85
2019-03-24T19:16:09.064Z,8.61
2019-03-24T19:18:39.717Z,8.20
2019-03-24T19:21:10.385Z,8.24
2019-03-24T19:23:41.152Z,8.01
2019-03-24T19:26:12.166Z,8.01
2019-03-24T19:28:42.902Z,7.83
2019-03-24T19:31:13.602Z,7.90
2019-03-24T19:33:44.568Z,7.56
2019-03-24T19:36:15.209Z,8.01
2019-03-24T19:38:46.146Z,8.61
2019-03-24T19:41:17.045Z,8.97
2019-03-24T19:43:47.799Z,8.62
2019-03-24T19:46:18.479Z,9.02
2019-03-24T19:48:49.312Z,9.27
2019-03-24T19:51:20.033Z,8.80
2019-03-24T19:53:51.125Z,9.02
2019-03-24T19:56:21.872Z,8.44
2019-03-24T19:58:52.873Z,7.97
2019-03-24T20:01:23.780Z,8.27
2019-03-24T20:03:54.427Z,7.68
2019-03-24T20:06:25.144Z,7.83
2019-03-24T20:08:55.843Z,7.83
2019-03-24T20:11:26.523Z,8.54
2019-03-24T20:13:57.446Z,7.72
2019-03-24T20:16:28.074Z,7.81
2019-03-24T20:18:58.745Z,8.23
2019-03-24T20:21:30.474Z,7.97
2019-03-24T20:24:01.191Z,8.05
2019-03-24T20:26:31.881Z,7.89
2019-03-24T20:29:02.549Z,8.13
2019-03-24T20:31:35.322Z,8.43
2019-03-24T20:34:08.984Z,8.33
2019-03-24T20:36:40.885Z,7.72
2019-03-24T20:39:11.863Z,7.97
2019-03-24T20:41:42.803Z,8.35
2019-03-24T20:44:13.774Z,7.90
2019-03-24T20:46:44.733Z,7.65
2019-03-24T20:49:15.501Z,7.65
2019-03-24T20:51:46.226Z,7.98
2019-03-24T20:54:16.916Z,7.62
2019-03-24T20:56:47.575Z,7.75
2019-03-24T20:59:18.315Z,7.64
2019-03-24T21:01:48.949Z,7.62
2019-03-24T21:04:20.358Z,7.74
2019-03-24T21:06:52.117Z,7.03
2019-03-24T21:09:22.927Z,6.68
2019-03-24T21:11:53.647Z,6.62
2019-03-24T21:14:24.319Z,6.82
2019-03-24T21:16:54.973Z,6.74
2019-03-24T21:19:25.656Z,6.94
2019-03-24T21:21:56.734Z,6.65
2019-03-24T21:24:27.404Z,6.69
2019-03-24T21:26:58.078Z,6.54
2019-03-24T21:29:28.781Z,6.41
2019-03-24T21:31:59.396Z,6.54
2019-03-24T21:34:30.053Z,6.45
2019-03-24T21:37:00.681Z,6.28
2019-03-24T21:39:31.370Z,6.69
2019-03-24T21:42:02.009Z,6.65
2019-03-24T21:44:32.670Z,6.47
2019-03-24T21:47:03.307Z,6.63
2019-03-24T21:49:33.957Z,6.53
2019-03-24T21:52:04.651Z,6.53
2019-03-24T21:54:35.588Z,6.17
2019-03-24T21:57:06.271Z,6.02
2019-03-24T21:59:37.605Z,6.08
2019-03-24T22:02:08.632Z,6.25
2019-03-24T22:04:39.456Z,6.25
2019-03-24T22:07:10.126Z,6.24
2019-03-24T22:09:41.035Z,5.92
2019-03-24T22:12:11.669Z,6.18
2019-03-24T22:14:43.398Z,6.14
2019-03-24T22:17:15.366Z,6.01
2019-03-24T22:19:46.540Z,5.99
2019-03-24T22:22:17.168Z,6.12
2019-03-24T22:24:48.093Z,5.90
2019-03-24T22:27:18.720Z,5.89
2019-03-24T22:29:49.402Z,6.11
2019-03-24T22:32:20.326Z,6.10
2019-03-24T22:34:50.972Z,6.12
2019-03-24T22:37:21.625Z,6.39
2019-03-24T22:39:52.316Z,6.06
2019-03-24T22:42:22.968Z,6.21
2019-03-24T22:44:53.639Z,5.97
2019-03-24T22:47:24.315Z,6.58
2019-03-24T22:49:55.240Z,6.33
2019-03-24T22:52:26.122Z,6.53
2019-03-24T22:54:56.805Z,6.87
2019-03-24T22:57:27.828Z,6.47
2019-03-24T22:59:58.460Z,6.59
2019-03-24T23:02:29.098Z,6.73
2019-03-24T23:04:59.792Z,6.19
2019-03-24T23:07:30.685Z,6.05
2019-03-24T23:10:02.337Z,5.92
2019-03-24T23:12:34.673Z,5.90
2019-03-24T23:15:05.559Z,5.69
2019-03-24T23:17:36.290Z,5.46
2019-03-24T23:20:07.205Z,5.54
2019-03-24T23:22:37.882Z,5.37
2019-03-24T23:25:08.894Z,5.37
2019-03-24T23:27:39.615Z,5.24
2019-03-24T23:30:11.107Z,5.11
2019-03-24T23:32:43.042Z,4.91
2019-03-24T23:35:13.777Z,4.90
2019-03-24T23:37:44.417Z,4.72
2019-03-24T23:40:16.379Z,4.95
2019-03-24T23:42:47.024Z,5.17
2019-03-24T23:45:17.952Z,5.30
2019-03-24T23:47:48.650Z,5.50
2019-03-24T23:50:19.582Z,5.65
2019-03-24T23:52:50.269Z,5.88
2019-03-24T23:55:21.215Z,6.08
2019-03-24T23:57:51.868Z,6.23
